createdAt,value
2022-07-31T00:00:46.985Z,26.80
2022-07-31T00:03:16.290Z,27.02
2022-07-31T00:05:44.072Z,26.77
2022-07-31T00:08:11.939Z,27.40
2022-07-31T00:10:40.025Z,26.65
2022-07-31T00:13:07.806Z,28.15
2022-07-31T00:15:38.235Z,27.08
2022-07-31T00:18:06.104Z,27.08
2022-07-31T00:20:35.593Z,29.52
2022-07-31T00:23:03.365Z,28.20
2022-07-31T00:25:31.953Z,31.60
2022-07-31T00:27:59.854Z,31.23
2022-07-31T00:30:27.616Z,32.55
2022-07-31T00:32:55.627Z,32.25
2022-07-31T00:35:23.474Z,31.77
2022-07-31T00:38:02.156Z,30.40
2022-07-31T00:40:47.745Z,34.05
2022-07-31T00:43:16.166Z,32.40
2022-07-31T00:45:44.305Z,32.38
2022-07-31T00:48:13.644Z,30.55
2022-07-31T00:50:41.757Z,31.50
2022-07-31T00:53:12.409Z,30.85
2022-07-31T00:55:40.594Z,33.03
2022-07-31T00:58:19.313Z,30.55
2022-07-31T01:00:47.762Z,32.08
2022-07-31T01:03:16.233Z,31.77
2022-07-31T01:05:43.952Z,34.05
2022-07-31T01:08:13.320Z,34.33
2022-07-31T01:10:47.006Z,31.30
2022-07-31T01:13:18.892Z,35.28
2022-07-31T01:15:46.932Z,35.67
2022-07-31T01:18:15.442Z,38.70
2022-07-31T01:20:44.782Z,41.08
2022-07-31T01:23:30.963Z,42.63
2022-07-31T01:26:35.722Z,39.45
2022-07-31T01:29:11.752Z,39.58
2022-07-31T01:31:44.862Z,44.47
2022-07-31T01:34:21.309Z,40.05
2022-07-31T01:36:56.709Z,38.60
2022-07-31T01:39:24.959Z,32.75
2022-07-31T01:41:53.540Z,34.42
2022-07-31T01:44:26.321Z,31.02
2022-07-31T01:46:54.692Z,30.15
2022-07-31T01:49:23.188Z,30.80
2022-07-31T01:51:52.718Z,31.40
2022-07-31T01:54:23.238Z,30.10
2022-07-31T01:56:51.809Z,29.70
2022-07-31T01:59:22.671Z,30.30
2022-07-31T02:02:10.077Z,34.67
2022-07-31T02:04:38.264Z,33.30
2022-07-31T02:07:08.096Z,31.70
2022-07-31T02:09:36.967Z,35.10
2022-07-31T02:12:09.782Z,38.30
2022-07-31T02:14:40.555Z,40.47
2022-07-31T02:17:10.647Z,43.83
2022-07-31T02:19:59.978Z,42.40
2022-07-31T02:22:29.340Z,39.20
2022-07-31T02:24:57.197Z,36.83
2022-07-31T02:27:55.520Z,36.22
2022-07-31T02:30:16.032Z,34.53
2022-07-31T02:32:47.380Z,33.38
2022-07-31T02:35:16.797Z,35.40
2022-07-31T02:37:45.868Z,37.00
2022-07-31T02:40:15.282Z,34.90
2022-07-31T02:42:43.644Z,35.53
2022-07-31T02:45:12.092Z,33.55
2022-07-31T02:47:40.046Z,31.77
2022-07-31T02:50:14.028Z,31.48
2022-07-31T02:52:48.372Z,32.33
2022-07-31T02:55:16.568Z,30.95
2022-07-31T02:57:44.640Z,31.80
2022-07-31T03:00:22.617Z,31.40
2022-07-31T03:02:52.200Z,31.73
2022-07-31T03:05:21.756Z,31.15
2022-07-31T03:07:49.659Z,31.17
2022-07-31T03:10:17.927Z,32.38
2022-07-31T03:13:04.505Z,31.80
2022-07-31T03:15:33.237Z,33.17
2022-07-31T03:18:02.012Z,30.17
2022-07-31T03:20:43.081Z,29.17
2022-07-31T03:23:12.921Z,27.02
2022-07-31T03:25:52.093Z,26.50
2022-07-31T03:28:20.488Z,27.45
2022-07-31T03:30:48.557Z,31.25
2022-07-31T03:33:16.308Z,29.85
2022-07-31T03:35:45.376Z,33.60
2022-07-31T03:38:40.840Z,30.73
2022-07-31T03:41:03.569Z,30.92
2022-07-31T03:43:44.124Z,31.63
2022-07-31T03:46:16.758Z,31.33
2022-07-31T03:48:44.809Z,32.50
2022-07-31T03:51:14.759Z,30.83
2022-07-31T03:53:43.700Z,33.20
2022-07-31T03:56:20.444Z,30.08
2022-07-31T03:58:52.530Z,30.58
2022-07-31T04:01:21.112Z,29.90
2022-07-31T04:03:59.046Z,29.20
2022-07-31T04:06:37.464Z,26.25
2022-07-31T04:09:15.578Z,27.92
2022-07-31T04:11:46.869Z,26.60
2022-07-31T04:14:14.720Z,25.50
2022-07-31T04:16:42.613Z,25.27
2022-07-31T04:19:10.656Z,25.58
2022-07-31T04:21:39.723Z,23.80
2022-07-31T04:24:08.324Z,26.15
2022-07-31T04:26:52.986Z,25.70
2022-07-31T04:29:21.026Z,23.13
2022-07-31T04:31:49.228Z,21.00
2022-07-31T04:34:25.559Z,20.75
2022-07-31T04:36:54.601Z,19.58
2022-07-31T04:39:22.372Z,17.85
2022-07-31T04:41:51.949Z,18.20
2022-07-31T04:44:20.682Z,18.52
2022-07-31T04:47:00.290Z,19.80
2022-07-31T04:49:29.050Z,17.10
2022-07-31T04:51:58.377Z,19.85
2022-07-31T04:54:26.207Z,19.80
2022-07-31T04:56:54.065Z,22.05
2022-07-31T04:59:23.555Z,21.63
2022-07-31T05:02:11.501Z,20.95
2022-07-31T05:04:40.502Z,26.58
2022-07-31T05:07:09.637Z,24.77
2022-07-31T05:09:37.389Z,28.17
2022-07-31T05:12:08.203Z,27.85
2022-07-31T05:14:36.372Z,29.10
2022-07-31T05:17:04.105Z,29.08
2022-07-31T05:19:50.879Z,27.50
2022-07-31T05:22:45.889Z,27.83
2022-07-31T05:25:32.990Z,25.98
2022-07-31T05:28:00.849Z,23.70
2022-07-31T05:30:30.635Z,26.92
2022-07-31T05:32:59.242Z,20.98
2022-07-31T05:35:27.211Z,16.63
2022-07-31T05:37:57.164Z,13.20
2022-07-31T05:40:39.175Z,13.65
2022-07-31T05:43:39.517Z,14.00
2022-07-31T05:46:17.673Z,12.98
2022-07-31T05:48:45.563Z,13.85
2022-07-31T05:51:14.564Z,12.52
2022-07-31T05:53:45.750Z,15.07
2022-07-31T05:56:32.519Z,13.93
2022-07-31T05:59:01.600Z,13.88
2022-07-31T06:01:29.548Z,14.95
2022-07-31T06:03:57.364Z,16.52
2022-07-31T06:06:32.977Z,15.20
2022-07-31T06:09:04.782Z,14.27
2022-07-31T06:11:41.750Z,14.50
2022-07-31T06:14:10.438Z,14.88
2022-07-31T06:16:58.326Z,13.15
2022-07-31T06:19:28.558Z,10.80
2022-07-31T06:21:56.327Z,9.57
2022-07-31T06:24:26.152Z,9.93
2022-07-31T06:26:57.725Z,10.73
2022-07-31T06:29:40.959Z,12.70
2022-07-31T06:32:10.653Z,13.38
2022-07-31T06:34:38.870Z,11.05
2022-07-31T06:37:07.648Z,11.73
2022-07-31T06:39:55.543Z,10.57
2022-07-31T06:43:00.861Z,12.35
2022-07-31T06:46:06.850Z,11.18
2022-07-31T06:48:57.625Z,11.35
2022-07-31T06:51:32.712Z,10.70
2022-07-31T06:54:01.064Z,12.15
2022-07-31T06:56:30.288Z,10.05
2022-07-31T06:58:58.189Z,9.07
2022-07-31T07:01:26.074Z,10.15
2022-07-31T07:03:54.561Z,8.93
2022-07-31T07:06:23.497Z,8.20
2022-07-31T07:08:51.618Z,11.88
2022-07-31T07:11:20.694Z,9.35
2022-07-31T07:13:50.774Z,10.05
2022-07-31T07:16:20.120Z,9.98
2022-07-31T07:18:48.737Z,8.25
2022-07-31T07:21:17.266Z,10.00
2022-07-31T07:23:45.091Z,13.07
2022-07-31T07:26:27.948Z,10.02
2022-07-31T07:28:57.473Z,8.85
2022-07-31T07:31:26.351Z,8.43
2022-07-31T07:33:56.009Z,8.73
2022-07-31T07:36:25.388Z,8.52
2022-07-31T07:38:58.723Z,7.80
2022-07-31T07:41:26.872Z,6.95
2022-07-31T07:43:55.228Z,8.57
2022-07-31T07:46:28.290Z,8.82
2022-07-31T07:48:58.440Z,8.77
2022-07-31T07:51:36.991Z,7.53
2022-07-31T07:54:37.122Z,6.47
2022-07-31T07:57:23.295Z,5.78
2022-07-31T08:00:11.908Z,4.95
2022-07-31T08:03:02.804Z,4.25
2022-07-31T08:05:40.476Z,4.20
2022-07-31T08:08:08.429Z,4.50
2022-07-31T08:10:48.162Z,4.70
2022-07-31T08:13:34.487Z,4.15
2022-07-31T08:16:32.519Z,4.40
2022-07-31T08:19:02.833Z,4.32
2022-07-31T08:21:31.624Z,3.83
2022-07-31T08:23:59.357Z,4.10
2022-07-31T08:26:27.448Z,3.72
2022-07-31T08:28:56.577Z,3.50
2022-07-31T08:31:27.283Z,3.72
2022-07-31T08:34:32.519Z,4.50
2022-07-31T08:37:52.441Z,4.07
2022-07-31T08:39:54.562Z,3.75
2022-07-31T08:42:22.956Z,3.17
2022-07-31T08:44:51.096Z,3.70
2022-07-31T08:47:23.541Z,3.65
2022-07-31T08:49:53.967Z,3.58
2022-07-31T08:52:23.793Z,3.40
2022-07-31T08:55:54.808Z,3.63
2022-07-31T08:58:04.525Z,3.50
2022-07-31T09:00:33.321Z,3.40
2022-07-31T09:03:01.332Z,3.40
2022-07-31T09:05:48.540Z,3.95
2022-07-31T09:08:16.669Z,4.00
2022-07-31T09:10:50.211Z,3.92
2022-07-31T09:13:19.636Z,3.85
2022-07-31T09:15:50.842Z,4.43
2022-07-31T09:18:19.664Z,3.50
2022-07-31T09:20:57.441Z,3.58
2022-07-31T09:23:26.399Z,3.70
2022-07-31T09:25:56.023Z,3.10
2022-07-31T09:28:33.605Z,3.25
2022-07-31T09:31:01.907Z,3.78
2022-07-31T09:33:58.795Z,4.47
2022-07-31T09:36:42.813Z,4.70
2022-07-31T09:39:30.913Z,5.20
2022-07-31T09:42:37.400Z,5.28
2022-07-31T09:45:23.770Z,4.60
2022-07-31T09:48:08.271Z,4.30
2022-07-31T09:50:36.382Z,3.90
2022-07-31T09:53:06.619Z,3.60
2022-07-31T09:55:36.333Z,3.72
2022-07-31T09:58:04.094Z,4.40
2022-07-31T10:00:38.753Z,3.83
2022-07-31T10:03:06.925Z,4.20
2022-07-31T10:05:35.277Z,4.10
2022-07-31T10:08:06.881Z,4.03
2022-07-31T10:10:53.161Z,4.88
2022-07-31T10:13:46.878Z,5.10
2022-07-31T10:16:15.332Z,3.50
2022-07-31T10:19:11.217Z,3.83
2022-07-31T10:21:58.439Z,3.92
2022-07-31T10:24:33.715Z,4.65
2022-07-31T10:27:07.852Z,4.70
2022-07-31T10:29:39.201Z,5.30
2022-07-31T10:32:07.853Z,5.47
2022-07-31T10:34:38.977Z,5.32
2022-07-31T10:37:32.246Z,6.15
2022-07-31T10:40:22.513Z,6.15
2022-07-31T10:43:03.430Z,4.72
2022-07-31T10:45:31.911Z,4.22
2022-07-31T10:48:26.313Z,4.57
2022-07-31T10:51:02.408Z,3.83
2022-07-31T10:54:06.845Z,3.78
2022-07-31T10:56:56.188Z,4.55
2022-07-31T10:59:44.881Z,6.03
2022-07-31T11:02:32.547Z,4.82
2022-07-31T11:05:23.066Z,3.85
2022-07-31T11:08:08.659Z,4.10
2022-07-31T11:11:00.829Z,4.30
2022-07-31T11:13:49.271Z,4.10
2022-07-31T11:16:53.236Z,3.90
2022-07-31T11:19:44.567Z,4.07
2022-07-31T11:22:31.607Z,4.10
2022-07-31T11:25:00.935Z,4.13
2022-07-31T11:27:32.692Z,3.80
2022-07-31T11:30:12.526Z,4.15
2022-07-31T11:32:41.270Z,3.70
2022-07-31T11:35:09.520Z,4.38
2022-07-31T11:37:46.239Z,4.18
2022-07-31T11:40:27.456Z,4.00
2022-07-31T11:43:24.814Z,4.07
2022-07-31T11:45:51.337Z,4.45
2022-07-31T11:48:20.881Z,4.43
2022-07-31T11:50:49.732Z,4.53
2022-07-31T11:53:17.806Z,4.05
2022-07-31T11:55:47.544Z,4.10
2022-07-31T11:58:16.573Z,4.18
2022-07-31T12:00:52.871Z,4.32
2022-07-31T12:03:23.688Z,4.38
2022-07-31T12:05:53.122Z,4.10
2022-07-31T12:08:21.779Z,4.18
2022-07-31T12:10:49.988Z,4.40
2022-07-31T12:13:19.811Z,4.13
2022-07-31T12:15:59.733Z,4.43
2022-07-31T12:18:28.242Z,4.20
2022-07-31T12:20:58.438Z,4.60
2022-07-31T12:23:41.130Z,4.28
2022-07-31T12:26:12.206Z,4.40
2022-07-31T12:28:40.069Z,4.35
2022-07-31T12:31:09.221Z,4.25
2022-07-31T12:33:45.527Z,4.47
2022-07-31T12:36:14.997Z,4.43
2022-07-31T12:38:45.052Z,4.32
2022-07-31T12:41:16.042Z,4.05
2022-07-31T12:43:51.883Z,4.65
2022-07-31T12:46:37.074Z,4.35
2022-07-31T12:49:05.389Z,4.50
2022-07-31T12:51:45.254Z,4.68
2022-07-31T12:54:15.845Z,4.43
2022-07-31T12:56:44.770Z,5.15
2022-07-31T12:59:12.875Z,4.97
2022-07-31T13:01:42.041Z,4.40
2022-07-31T13:04:18.664Z,5.55
2022-07-31T13:06:48.723Z,4.85
2022-07-31T13:09:16.732Z,5.03
2022-07-31T13:11:46.388Z,5.68
2022-07-31T13:14:16.460Z,5.00
2022-07-31T13:16:45.961Z,4.78
2022-07-31T13:19:13.971Z,5.07
2022-07-31T13:21:48.370Z,5.03
2022-07-31T13:24:18.279Z,4.82
2022-07-31T13:26:46.086Z,4.90
2022-07-31T13:29:13.888Z,4.68
2022-07-31T13:31:41.695Z,4.80
2022-07-31T13:34:10.785Z,4.55
2022-07-31T13:36:39.962Z,4.60
2022-07-31T13:39:08.146Z,4.40
2022-07-31T13:41:36.012Z,4.45
2022-07-31T13:44:06.767Z,4.22
2022-07-31T13:46:34.713Z,4.32
2022-07-31T13:49:04.177Z,4.47
2022-07-31T13:51:33.468Z,4.60
2022-07-31T13:54:01.522Z,4.70
2022-07-31T13:56:38.941Z,4.25
2022-07-31T13:59:11.418Z,4.80
2022-07-31T14:02:03.848Z,4.07
2022-07-31T14:04:31.326Z,4.32
2022-07-31T14:07:04.187Z,4.30
2022-07-31T14:09:35.187Z,4.18
2022-07-31T14:12:04.395Z,4.38
2022-07-31T14:14:32.939Z,4.60
2022-07-31T14:17:00.731Z,4.78
2022-07-31T14:19:28.594Z,5.40
2022-07-31T14:21:57.543Z,5.45
2022-07-31T14:24:27.288Z,4.88
2022-07-31T14:26:55.210Z,5.63
2022-07-31T14:29:22.951Z,5.65
2022-07-31T14:31:51.042Z,6.32
2022-07-31T14:34:18.789Z,8.40
2022-07-31T14:36:46.561Z,7.35
2022-07-31T14:39:14.333Z,9.27
2022-07-31T14:41:43.857Z,8.70
2022-07-31T14:44:11.903Z,5.50
2022-07-31T14:46:39.643Z,5.65
2022-07-31T14:49:08.527Z,5.53
2022-07-31T14:51:36.386Z,5.65
2022-07-31T14:54:04.199Z,5.50
2022-07-31T14:56:59.720Z,5.45
2022-07-31T14:59:21.349Z,6.00
2022-07-31T15:01:49.104Z,6.38
2022-07-31T15:04:16.895Z,8.05
2022-07-31T15:06:56.000Z,6.72
2022-07-31T15:09:33.236Z,6.68
2022-07-31T15:12:02.028Z,7.82
2022-07-31T15:14:31.787Z,6.40
2022-07-31T15:16:59.662Z,6.82
2022-07-31T15:19:27.515Z,6.88
2022-07-31T15:22:10.326Z,6.93
2022-07-31T15:24:48.828Z,6.93
2022-07-31T15:27:18.228Z,8.02
2022-07-31T15:30:04.759Z,8.02
2022-07-31T15:32:34.186Z,8.95
2022-07-31T15:35:01.932Z,8.68
2022-07-31T15:37:30.072Z,10.10
2022-07-31T15:40:02.402Z,9.00
2022-07-31T15:42:31.751Z,9.73
2022-07-31T15:45:01.004Z,10.65
2022-07-31T15:47:28.711Z,10.73
2022-07-31T15:49:56.505Z,10.15
2022-07-31T15:52:24.775Z,11.82
2022-07-31T15:54:52.928Z,11.77
2022-07-31T15:57:21.400Z,12.63
2022-07-31T15:59:49.423Z,13.25
2022-07-31T16:02:18.647Z,13.82
2022-07-31T16:04:52.857Z,14.30
2022-07-31T16:08:31.470Z,15.65
2022-07-31T16:10:15.462Z,14.57
2022-07-31T16:12:45.747Z,15.32
2022-07-31T16:15:13.996Z,15.45
2022-07-31T16:17:43.395Z,16.63
2022-07-31T16:20:12.777Z,16.63
2022-07-31T16:22:42.211Z,14.65
2022-07-31T16:25:11.552Z,16.58
2022-07-31T16:27:40.205Z,17.98
2022-07-31T16:30:08.767Z,17.95
2022-07-31T16:32:36.529Z,17.95
2022-07-31T16:35:06.982Z,17.05
2022-07-31T16:37:50.903Z,17.83
2022-07-31T16:40:30.758Z,18.40
2022-07-31T16:43:01.690Z,17.48
2022-07-31T16:45:30.683Z,19.38
2022-07-31T16:47:58.599Z,19.48
2022-07-31T16:50:27.852Z,19.70
2022-07-31T16:52:55.745Z,19.75
2022-07-31T16:55:51.520Z,20.08
2022-07-31T16:58:12.588Z,20.13
2022-07-31T17:00:40.849Z,20.23
2022-07-31T17:04:02.033Z,21.55
2022-07-31T17:05:58.474Z,22.58
2022-07-31T17:08:26.216Z,19.85
2022-07-31T17:10:54.958Z,22.20
2022-07-31T17:13:23.422Z,22.05
2022-07-31T17:15:51.339Z,22.15
2022-07-31T17:18:24.769Z,22.73
2022-07-31T17:20:53.385Z,20.48
2022-07-31T17:23:43.629Z,23.38
2022-07-31T17:26:21.189Z,21.10
2022-07-31T17:28:50.449Z,23.90
2022-07-31T17:31:18.892Z,21.20
2022-07-31T17:33:58.153Z,24.45
2022-07-31T17:36:27.778Z,22.45
2022-07-31T17:38:57.082Z,24.05
2022-07-31T17:41:26.154Z,24.88
2022-07-31T17:43:54.794Z,22.60
2022-07-31T17:46:29.985Z,25.27
2022-07-31T17:49:04.823Z,23.52
2022-07-31T17:51:33.008Z,25.98
2022-07-31T17:54:02.517Z,24.70
2022-07-31T17:56:30.312Z,23.98
2022-07-31T17:59:04.130Z,25.13
2022-07-31T18:01:32.001Z,26.48
2022-07-31T18:04:00.034Z,26.30
2022-07-31T18:06:28.449Z,25.50
2022-07-31T18:08:56.243Z,26.58
2022-07-31T18:11:25.444Z,24.85
2022-07-31T18:13:55.543Z,25.20
2022-07-31T18:16:31.415Z,26.10
2022-07-31T18:18:59.208Z,26.38
2022-07-31T18:21:27.005Z,26.80
2022-07-31T18:23:54.712Z,24.88
2022-07-31T18:26:23.467Z,23.95
2022-07-31T18:28:52.611Z,25.60
2022-07-31T18:31:34.625Z,22.48
2022-07-31T18:34:04.156Z,20.38
2022-07-31T18:36:32.273Z,20.33
2022-07-31T18:39:00.120Z,19.75
2022-07-31T18:41:28.041Z,21.27
2022-07-31T18:43:57.297Z,20.40
2022-07-31T18:46:25.505Z,20.67
2022-07-31T18:48:55.758Z,21.23
2022-07-31T18:51:24.637Z,20.88
2022-07-31T18:53:54.685Z,21.70
2022-07-31T18:56:23.497Z,22.45
2022-07-31T18:58:51.311Z,22.60
2022-07-31T19:01:20.735Z,22.00
2022-07-31T19:03:48.647Z,23.92
2022-07-31T19:06:17.105Z,24.67
2022-07-31T19:08:44.996Z,23.20
2022-07-31T19:11:12.897Z,26.23
2022-07-31T19:13:40.710Z,23.00
2022-07-31T19:16:08.466Z,23.88
2022-07-31T19:18:39.777Z,27.10
2022-07-31T19:21:22.636Z,24.92
2022-07-31T19:23:56.264Z,26.73
2022-07-31T19:26:24.087Z,24.73
2022-07-31T19:28:52.202Z,25.67
2022-07-31T19:31:19.982Z,26.15
2022-07-31T19:33:49.199Z,32.03
2022-07-31T19:36:17.779Z,26.20
2022-07-31T19:38:45.675Z,25.80
2022-07-31T19:41:14.619Z,28.17
2022-07-31T19:43:42.502Z,24.20
2022-07-31T19:46:12.765Z,34.05
2022-07-31T19:48:41.599Z,29.00
2022-07-31T19:51:11.366Z,30.85
2022-07-31T19:53:39.621Z,25.10
2022-07-31T19:56:07.414Z,26.33
2022-07-31T19:58:35.519Z,21.67
2022-07-31T20:01:04.548Z,26.90
2022-07-31T20:03:32.683Z,25.45
2022-07-31T20:06:00.753Z,23.30
2022-07-31T20:08:33.046Z,27.95
2022-07-31T20:11:03.443Z,24.40
2022-07-31T20:13:32.361Z,31.75
2022-07-31T20:16:00.493Z,30.83
2022-07-31T20:18:29.610Z,30.52
2022-07-31T20:20:59.819Z,29.05
2022-07-31T20:23:28.238Z,27.27
2022-07-31T20:25:57.624Z,31.50
2022-07-31T20:28:26.976Z,37.97
2022-07-31T20:30:54.776Z,32.17
2022-07-31T20:33:22.634Z,35.88
2022-07-31T20:35:51.884Z,32.40
2022-07-31T20:38:19.985Z,36.85
2022-07-31T20:40:54.733Z,35.17
2022-07-31T20:43:26.019Z,35.03
2022-07-31T20:45:54.195Z,34.70
2022-07-31T20:48:23.981Z,30.05
2022-07-31T20:50:52.290Z,34.58
2022-07-31T20:53:20.862Z,30.60
2022-07-31T20:55:49.940Z,32.05
2022-07-31T20:58:18.207Z,30.92
2022-07-31T21:00:48.197Z,30.55
2022-07-31T21:03:16.197Z,30.40
2022-07-31T21:05:44.557Z,31.60
2022-07-31T21:08:13.064Z,33.80
2022-07-31T21:10:51.949Z,31.08
2022-07-31T21:13:19.802Z,29.90
2022-07-31T21:15:51.333Z,31.20
2022-07-31T21:18:20.853Z,30.15
2022-07-31T21:20:52.177Z,28.27
2022-07-31T21:23:22.704Z,26.83
2022-07-31T21:25:51.339Z,26.08
2022-07-31T21:28:19.933Z,25.77
2022-07-31T21:30:49.719Z,27.08
2022-07-31T21:33:18.536Z,26.05
2022-07-31T21:35:47.044Z,25.08
2022-07-31T21:38:16.013Z,26.08
2022-07-31T21:40:44.634Z,26.27
2022-07-31T21:43:16.950Z,26.13
2022-07-31T21:45:57.573Z,25.00
2022-07-31T21:48:31.315Z,26.80
2022-07-31T21:50:59.832Z,26.45
2022-07-31T21:53:27.608Z,26.40
2022-07-31T21:55:55.389Z,27.17
2022-07-31T21:58:23.142Z,25.73
2022-07-31T22:00:52.276Z,26.23
2022-07-31T22:03:20.062Z,27.70
2022-07-31T22:06:05.576Z,27.67
2022-07-31T22:08:33.287Z,24.95
2022-07-31T22:11:01.328Z,25.95
2022-07-31T22:13:29.031Z,28.27
2022-07-31T22:16:00.705Z,29.42
2022-07-31T22:18:33.413Z,29.45
2022-07-31T22:21:05.450Z,29.63
2022-07-31T22:23:33.838Z,27.35
2022-07-31T22:26:02.489Z,28.75
2022-07-31T22:28:30.994Z,30.17
2022-07-31T22:31:00.811Z,30.33
2022-07-31T22:33:28.833Z,30.50
2022-07-31T22:35:58.239Z,30.80
2022-07-31T22:38:28.835Z,30.10
2022-07-31T22:40:56.745Z,31.48
2022-07-31T22:44:11.541Z,29.77
2022-07-31T22:46:14.810Z,27.13
2022-07-31T22:48:43.392Z,30.48
2022-07-31T22:51:14.346Z,28.90
2022-07-31T22:53:43.091Z,29.27
2022-07-31T22:56:10.822Z,31.27
2022-07-31T22:58:38.634Z,28.13
2022-07-31T23:01:06.422Z,28.40
2022-07-31T23:03:35.541Z,26.75
2022-07-31T23:06:31.845Z,28.73
2022-07-31T23:08:53.786Z,25.15
2022-07-31T23:11:24.381Z,25.73
2022-07-31T23:13:52.597Z,26.95
2022-07-31T23:16:21.036Z,27.17
2022-07-31T23:18:50.510Z,26.65
2022-07-31T23:21:18.841Z,28.27
2022-07-31T23:23:48.862Z,26.90
2022-07-31T23:26:18.226Z,27.48
2022-07-31T23:28:46.000Z,26.80
2022-07-31T23:31:13.889Z,27.70
2022-07-31T23:33:42.036Z,27.88
2022-07-31T23:36:11.386Z,24.80
2022-07-31T23:38:39.156Z,28.92
2022-07-31T23:41:06.908Z,28.48
2022-07-31T23:43:34.021Z,26.80
2022-07-31T23:46:01.761Z,27.35
2022-07-31T23:48:29.943Z,25.98
2022-07-31T23:50:58.193Z,26.27
2022-07-31T23:53:27.955Z,25.73
2022-07-31T23:55:55.736Z,26.65
2022-07-31T23:58:23.447Z,24.80
